createdAt,value
2022-11-16T00:01:04.749Z,69.32
2022-11-16T00:03:33.334Z,69.17
2022-11-16T00:06:01.061Z,69.07
2022-11-16T00:08:28.715Z,69.59
2022-11-16T00:10:56.352Z,70.00
2022-11-16T00:13:24.103Z,69.54
2022-11-16T00:15:52.187Z,69.15
2022-11-16T00:18:19.906Z,69.24
2022-11-16T00:20:48.293Z,69.53
2022-11-16T00:23:16.022Z,69.64
2022-11-16T00:25:44.059Z,69.86
2022-11-16T00:28:12.172Z,69.79
2022-11-16T00:30:39.817Z,70.09
2022-11-16T00:33:07.506Z,69.44
2022-11-16T00:35:35.205Z,70.39
2022-11-16T00:38:04.649Z,70.30
2022-11-16T00:40:32.641Z,70.30
2022-11-16T00:43:00.307Z,70.45
2022-11-16T00:45:27.901Z,70.58
2022-11-16T00:48:00.328Z,70.71
2022-11-16T00:50:31.665Z,70.43
2022-11-16T00:52:59.346Z,70.69
2022-11-16T00:55:27.010Z,70.98
2022-11-16T00:57:54.720Z,70.21
2022-11-16T01:00:22.336Z,71.04
2022-11-16T01:02:49.980Z,70.40
2022-11-16T01:05:17.693Z,71.20
2022-11-16T01:07:45.358Z,71.32
2022-11-16T01:10:12.962Z,71.23
2022-11-16T01:12:39.565Z,71.00
2022-11-16T01:15:09.147Z,71.31
2022-11-16T01:17:36.811Z,71.49
2022-11-16T01:20:04.599Z,71.16
2022-11-16T01:22:32.233Z,71.22
2022-11-16T01:24:59.813Z,71.60
2022-11-16T01:27:28.063Z,71.56
2022-11-16T01:29:56.057Z,71.82
2022-11-16T01:32:23.971Z,71.04
2022-11-16T01:34:51.643Z,71.35
2022-11-16T01:37:19.235Z,71.81
2022-11-16T01:39:48.397Z,71.93
2022-11-16T01:42:16.422Z,71.23
2022-11-16T01:44:44.029Z,71.45
2022-11-16T01:47:11.638Z,71.68
2022-11-16T01:49:39.309Z,71.56
2022-11-16T01:52:07.871Z,71.32
2022-11-16T01:54:36.126Z,71.83
2022-11-16T01:57:03.784Z,71.75
2022-11-16T01:59:31.368Z,71.89
2022-11-16T02:01:58.968Z,71.75
2022-11-16T02:04:28.035Z,71.77
2022-11-16T02:06:56.020Z,71.56
2022-11-16T02:09:41.030Z,71.95
2022-11-16T02:12:08.653Z,71.91
2022-11-16T02:14:41.489Z,72.13
2022-11-16T02:17:09.522Z,71.90
2022-11-16T02:19:37.120Z,71.66
2022-11-16T02:22:04.720Z,72.25
2022-11-16T02:24:32.355Z,72.15
2022-11-16T02:27:00.035Z,72.32
2022-11-16T02:29:28.015Z,72.51
2022-11-16T02:31:55.639Z,71.94
2022-11-16T02:34:23.267Z,72.35
2022-11-16T02:36:51.320Z,72.21
2022-11-16T02:39:18.913Z,72.22
2022-11-16T02:41:46.893Z,72.43
2022-11-16T02:44:14.539Z,72.71
2022-11-16T02:46:42.142Z,73.04
2022-11-16T02:49:09.757Z,73.65
2022-11-16T02:51:38.590Z,73.76
2022-11-16T02:54:08.951Z,73.28
2022-11-16T02:56:38.134Z,73.35
2022-11-16T02:59:06.175Z,73.57
2022-11-16T03:01:33.833Z,73.93
2022-11-16T03:04:03.851Z,74.07
2022-11-16T03:06:31.675Z,73.71
2022-11-16T03:08:59.237Z,73.99
2022-11-16T03:11:44.226Z,74.54
2022-11-16T03:14:13.476Z,74.27
2022-11-16T03:16:41.433Z,74.43
2022-11-16T03:19:12.458Z,74.55
2022-11-16T03:21:40.026Z,74.43
2022-11-16T03:24:07.660Z,74.74
2022-11-16T03:26:36.866Z,74.83
2022-11-16T03:29:04.906Z,74.71
2022-11-16T03:31:32.503Z,74.73
2022-11-16T03:34:00.131Z,74.43
2022-11-16T03:36:27.700Z,74.84
2022-11-16T03:38:56.185Z,74.42
2022-11-16T03:41:24.252Z,74.93
2022-11-16T03:43:51.819Z,75.15
2022-11-16T03:46:20.769Z,74.88
2022-11-16T03:48:48.397Z,74.90
2022-11-16T03:51:16.553Z,74.54
2022-11-16T03:53:44.516Z,75.23
2022-11-16T03:56:12.123Z,74.54
2022-11-16T03:58:39.719Z,74.80
2022-11-16T04:01:07.834Z,75.32
2022-11-16T04:03:35.522Z,75.12
2022-11-16T04:06:21.099Z,75.15
2022-11-16T04:09:06.080Z,75.02
2022-11-16T04:11:51.013Z,74.61
2022-11-16T04:14:36.078Z,75.17
2022-11-16T04:17:20.784Z,74.79
2022-11-16T04:20:05.752Z,74.38
2022-11-16T04:22:50.868Z,74.96
2022-11-16T04:25:20.641Z,74.87
2022-11-16T04:28:06.295Z,75.42
2022-11-16T04:30:56.632Z,74.71
2022-11-16T04:33:41.609Z,75.30
2022-11-16T04:36:28.821Z,74.79
2022-11-16T04:38:58.883Z,75.10
2022-11-16T04:41:44.133Z,75.67
2022-11-16T04:44:12.176Z,75.14
2022-11-16T04:46:57.428Z,75.58
2022-11-16T04:49:28.541Z,75.56
2022-11-16T04:51:56.087Z,75.74
2022-11-16T04:54:23.674Z,75.96
2022-11-16T04:56:52.412Z,76.25
2022-11-16T04:59:19.994Z,75.73
2022-11-16T05:02:05.507Z,76.45
2022-11-16T05:04:33.429Z,75.97
2022-11-16T05:07:01.064Z,75.76
2022-11-16T05:09:28.767Z,75.61
2022-11-16T05:11:56.348Z,76.26
2022-11-16T05:14:24.299Z,76.08
2022-11-16T05:16:51.945Z,76.37
2022-11-16T05:19:36.896Z,76.13
2022-11-16T05:22:04.607Z,76.26
2022-11-16T05:24:35.780Z,76.31
2022-11-16T05:27:06.410Z,76.59
2022-11-16T05:29:34.030Z,76.58
2022-11-16T05:32:01.697Z,76.43
2022-11-16T05:34:29.394Z,76.41
2022-11-16T05:36:57.036Z,75.99
2022-11-16T05:39:26.327Z,76.71
2022-11-16T05:41:54.041Z,76.77
2022-11-16T05:44:21.614Z,76.72
2022-11-16T05:46:49.706Z,76.28
2022-11-16T05:49:17.664Z,76.57
2022-11-16T05:51:45.346Z,76.91
2022-11-16T05:54:12.988Z,76.45
2022-11-16T05:56:40.620Z,76.27
2022-11-16T05:59:11.239Z,76.44
2022-11-16T06:01:43.256Z,76.18
2022-11-16T06:04:10.911Z,76.53
2022-11-16T06:06:38.567Z,76.79
2022-11-16T06:09:06.343Z,76.32
2022-11-16T06:11:35.945Z,76.85
2022-11-16T06:14:04.323Z,77.16
2022-11-16T06:16:32.893Z,77.03
2022-11-16T06:19:00.527Z,76.90
2022-11-16T06:21:28.148Z,77.18
2022-11-16T06:23:55.809Z,77.49
2022-11-16T06:26:23.744Z,78.21
2022-11-16T06:28:56.607Z,77.41
2022-11-16T06:31:24.355Z,78.07
2022-11-16T06:33:52.058Z,78.38
2022-11-16T06:36:19.759Z,78.38
2022-11-16T06:38:47.716Z,79.30
2022-11-16T06:41:17.360Z,78.29
2022-11-16T06:43:45.235Z,78.65
2022-11-16T06:46:12.964Z,79.01
2022-11-16T06:48:40.585Z,78.96
2022-11-16T06:51:08.960Z,79.44
2022-11-16T06:53:39.237Z,79.59
2022-11-16T06:56:06.903Z,79.42
2022-11-16T06:58:34.851Z,79.56
2022-11-16T07:01:02.652Z,79.39
2022-11-16T07:03:30.688Z,79.40
2022-11-16T07:05:58.484Z,78.84
2022-11-16T07:08:26.213Z,79.55
2022-11-16T07:10:53.867Z,79.31
2022-11-16T07:13:21.956Z,79.16
2022-11-16T07:15:50.024Z,78.92
2022-11-16T07:18:19.844Z,79.28
2022-11-16T07:20:47.673Z,78.93
2022-11-16T07:23:15.298Z,79.08
2022-11-16T07:25:46.428Z,78.68
2022-11-16T07:28:14.887Z,79.03
2022-11-16T07:30:44.855Z,79.00
2022-11-16T07:33:12.505Z,78.76
2022-11-16T07:35:40.711Z,79.08
2022-11-16T07:38:08.509Z,78.69
2022-11-16T07:40:36.565Z,78.86
2022-11-16T07:43:04.360Z,78.93
2022-11-16T07:45:32.030Z,78.73
2022-11-16T07:47:59.709Z,78.92
2022-11-16T07:50:27.456Z,78.87
2022-11-16T07:52:55.475Z,79.30
2022-11-16T07:55:26.547Z,78.75
2022-11-16T07:57:54.689Z,79.01
2022-11-16T08:00:22.849Z,78.94
2022-11-16T08:02:50.581Z,78.89
2022-11-16T08:05:18.483Z,78.66
2022-11-16T08:07:46.324Z,78.73
2022-11-16T08:10:14.131Z,78.97
2022-11-16T08:12:41.980Z,78.67
2022-11-16T08:15:09.661Z,78.65
2022-11-16T08:17:37.755Z,78.27
2022-11-16T08:20:08.708Z,78.75
2022-11-16T08:22:36.459Z,78.09
2022-11-16T08:25:04.288Z,78.51
2022-11-16T08:27:32.140Z,78.16
2022-11-16T08:30:00.184Z,78.43
2022-11-16T08:32:29.927Z,77.52
2022-11-16T08:34:57.716Z,77.61
2022-11-16T08:37:26.378Z,77.88
2022-11-16T08:39:54.089Z,77.42
2022-11-16T08:42:22.470Z,77.75
2022-11-16T08:44:51.350Z,77.61
2022-11-16T08:47:19.062Z,77.35
2022-11-16T08:52:33.369Z,77.36
2022-11-16T08:55:02.257Z,77.22
2022-11-16T08:57:30.029Z,77.24
2022-11-16T08:59:57.959Z,77.15
2022-11-16T09:02:26.326Z,77.16
2022-11-16T09:04:54.472Z,77.02
2022-11-16T09:07:22.576Z,77.28
2022-11-16T09:09:50.703Z,76.70
2022-11-16T09:12:25.504Z,76.63
2022-11-16T09:14:53.426Z,77.19
2022-11-16T09:17:23.365Z,76.92
2022-11-16T09:19:51.261Z,76.49
2022-11-16T09:22:19.070Z,77.13
2022-11-16T09:24:47.119Z,76.93
2022-11-16T09:27:15.140Z,76.95
2022-11-16T09:29:42.894Z,76.31
2022-11-16T09:32:11.611Z,75.93
2022-11-16T09:34:39.401Z,76.03
2022-11-16T09:37:08.377Z,76.27
2022-11-16T09:39:40.945Z,75.76
2022-11-16T09:42:10.624Z,75.79
2022-11-16T09:44:40.378Z,75.24
2022-11-16T09:47:08.285Z,75.31
2022-11-16T09:49:36.210Z,74.63
2022-11-16T09:52:04.014Z,74.26
2022-11-16T09:54:31.766Z,74.10
2022-11-16T09:57:01.664Z,73.65
2022-11-16T09:59:30.107Z,72.09
2022-11-16T10:01:58.060Z,70.66
2022-11-16T10:04:26.251Z,69.18
2022-11-16T10:06:54.548Z,67.55
2022-11-16T10:09:26.075Z,65.98
2022-11-16T10:11:53.981Z,65.65
2022-11-16T10:14:21.745Z,65.45
2022-11-16T10:16:49.548Z,65.92
2022-11-16T10:19:17.479Z,67.49
2022-11-16T10:21:46.934Z,68.31
2022-11-16T10:24:14.975Z,69.27
2022-11-16T10:26:42.898Z,69.63
2022-11-16T10:29:11.182Z,69.79
2022-11-16T10:31:39.738Z,70.26
2022-11-16T10:34:10.754Z,69.90
2022-11-16T10:36:38.596Z,69.91
2022-11-16T10:39:06.548Z,70.23
2022-11-16T10:41:34.441Z,69.86
2022-11-16T10:44:02.553Z,70.23
2022-11-16T10:46:30.587Z,70.09
2022-11-16T10:48:58.467Z,70.14
2022-11-16T10:51:26.783Z,69.51
2022-11-16T10:53:56.094Z,68.13
2022-11-16T10:56:24.291Z,67.67
2022-11-16T10:58:54.840Z,66.48
2022-11-16T11:01:22.733Z,66.85
2022-11-16T11:03:50.998Z,67.26
2022-11-16T11:06:18.818Z,66.84
2022-11-16T11:08:47.533Z,66.69
2022-11-16T11:11:29.086Z,66.44
2022-11-16T11:13:56.931Z,66.84
2022-11-16T11:16:24.711Z,66.91
2022-11-16T11:18:52.497Z,66.88
2022-11-16T11:21:21.322Z,67.06
2022-11-16T11:23:49.113Z,67.46
2022-11-16T11:26:17.064Z,67.12
2022-11-16T11:28:45.008Z,67.52
2022-11-16T11:31:13.405Z,67.63
2022-11-16T11:33:41.659Z,67.45
2022-11-16T11:36:13.418Z,67.15
2022-11-16T11:38:50.390Z,67.24
2022-11-16T11:41:19.385Z,66.91
2022-11-16T11:43:47.415Z,66.52
2022-11-16T11:46:16.878Z,66.50
2022-11-16T11:48:48.210Z,65.82
2022-11-16T11:51:15.963Z,65.94
2022-11-16T11:53:44.383Z,66.35
2022-11-16T11:56:12.417Z,65.58
2022-11-16T11:58:40.104Z,65.62
2022-11-16T12:01:08.006Z,66.16
2022-11-16T12:03:36.013Z,65.88
2022-11-16T12:06:04.521Z,65.88
2022-11-16T12:08:32.462Z,65.80
2022-11-16T12:11:02.177Z,65.83
2022-11-16T12:13:29.967Z,66.34
2022-11-16T12:15:58.348Z,65.51
2022-11-16T12:18:27.045Z,65.58
2022-11-16T12:20:54.928Z,64.75
2022-11-16T12:23:22.778Z,64.69
2022-11-16T12:25:50.756Z,64.68
2022-11-16T12:28:18.638Z,64.58
2022-11-16T12:30:46.896Z,64.03
2022-11-16T12:33:14.922Z,64.36
2022-11-16T12:35:44.197Z,64.40
2022-11-16T12:38:11.926Z,64.50
2022-11-16T12:40:39.915Z,64.43
2022-11-16T12:43:08.066Z,64.25
2022-11-16T12:45:35.787Z,64.37
2022-11-16T12:48:04.773Z,64.03
2022-11-16T12:50:32.631Z,63.76
2022-11-16T12:53:00.641Z,64.15
2022-11-16T12:55:28.781Z,63.40
2022-11-16T12:57:57.172Z,63.62
2022-11-16T13:00:28.240Z,63.85
2022-11-16T13:02:56.127Z,63.74
2022-11-16T13:05:32.515Z,62.64
2022-11-16T13:08:00.611Z,62.15
2022-11-16T13:10:28.804Z,62.61
2022-11-16T13:13:22.027Z,62.42
2022-11-16T13:15:46.551Z,62.31
2022-11-16T13:18:15.333Z,61.70
2022-11-16T13:20:46.834Z,62.06
2022-11-16T13:23:14.641Z,61.81
2022-11-16T13:25:42.382Z,61.53
2022-11-16T13:28:10.163Z,60.72
2022-11-16T13:30:38.420Z,60.48
2022-11-16T13:33:06.366Z,61.07
2022-11-16T13:35:34.310Z,61.66
2022-11-16T13:38:02.387Z,61.62
2022-11-16T13:40:30.215Z,61.74
2022-11-16T13:42:58.691Z,61.98
2022-11-16T13:45:26.651Z,61.25
2022-11-16T13:47:54.372Z,60.52
2022-11-16T13:50:22.133Z,60.56
2022-11-16T13:55:38.198Z,61.17
2022-11-16T13:58:06.126Z,61.20
2022-11-16T14:00:34.816Z,61.55
2022-11-16T14:03:02.893Z,62.13
2022-11-16T14:05:30.798Z,63.05
2022-11-16T14:07:59.078Z,63.39
2022-11-16T14:10:26.983Z,63.75
2022-11-16T14:12:54.926Z,64.37
2022-11-16T14:15:22.857Z,64.59
2022-11-16T14:17:50.858Z,64.88
2022-11-16T14:20:22.271Z,64.57
2022-11-16T14:22:50.940Z,65.29
2022-11-16T14:25:18.932Z,65.45
2022-11-16T14:27:46.744Z,65.38
2022-11-16T14:30:14.619Z,65.56
2022-11-16T14:32:42.966Z,65.48
2022-11-16T14:35:10.878Z,65.33
2022-11-16T14:37:38.964Z,65.24
2022-11-16T14:40:06.926Z,65.63
2022-11-16T14:42:54.333Z,65.61
2022-11-16T14:45:24.481Z,65.27
2022-11-16T14:47:52.413Z,65.31
2022-11-16T14:50:20.376Z,65.21
2022-11-16T14:52:48.971Z,65.09
2022-11-16T14:55:16.819Z,65.64
2022-11-16T14:57:45.158Z,65.45
2022-11-16T15:00:13.494Z,65.57
2022-11-16T15:02:41.635Z,65.62
2022-11-16T15:05:09.876Z,65.18
2022-11-16T15:07:38.007Z,65.62
2022-11-16T15:10:09.140Z,65.98
2022-11-16T15:12:43.323Z,66.07
2022-11-16T15:15:11.227Z,66.22
2022-11-16T15:17:39.087Z,66.86
2022-11-16T15:20:07.945Z,66.48
2022-11-16T15:22:36.149Z,67.22
2022-11-16T15:25:03.915Z,67.11
2022-11-16T15:27:31.888Z,67.50
2022-11-16T15:29:59.770Z,67.74
2022-11-16T15:32:27.634Z,67.43
2022-11-16T15:34:56.764Z,67.66
2022-11-16T15:37:26.883Z,67.70
2022-11-16T15:39:54.860Z,67.13
2022-11-16T15:42:22.948Z,67.23
2022-11-16T15:44:51.839Z,67.78
2022-11-16T15:47:20.554Z,67.75
2022-11-16T15:49:50.075Z,67.69
2022-11-16T15:52:18.004Z,67.81
2022-11-16T15:55:12.075Z,67.59
2022-11-16T15:57:44.030Z,67.95
2022-11-16T16:00:14.621Z,67.64
2022-11-16T16:02:42.528Z,68.33
2022-11-16T16:05:10.378Z,68.04
2022-11-16T16:07:38.351Z,68.11
2022-11-16T16:10:06.551Z,68.40
2022-11-16T16:12:34.542Z,68.51
2022-11-16T16:15:02.490Z,68.42
2022-11-16T16:17:30.440Z,68.72
2022-11-16T16:19:58.437Z,68.71
2022-11-16T16:22:26.987Z,68.95
2022-11-16T16:24:54.830Z,68.23
2022-11-16T16:27:22.879Z,68.51
2022-11-16T16:29:50.921Z,68.95
2022-11-16T16:32:19.627Z,68.41
2022-11-16T16:34:47.534Z,68.23
2022-11-16T16:37:15.614Z,68.19
2022-11-16T16:39:43.674Z,68.40
2022-11-16T16:42:11.595Z,68.19
2022-11-16T16:44:39.609Z,68.45
2022-11-16T16:47:07.415Z,68.36
2022-11-16T16:49:35.676Z,68.53
2022-11-16T16:52:03.609Z,68.87
2022-11-16T16:54:31.425Z,68.95
2022-11-16T16:57:01.772Z,69.23
2022-11-16T16:59:30.797Z,69.01
2022-11-16T17:01:58.701Z,68.96
2022-11-16T17:04:26.587Z,68.89
2022-11-16T17:06:54.779Z,68.75
2022-11-16T17:09:23.971Z,68.38
2022-11-16T17:11:52.403Z,68.74
2022-11-16T17:14:21.845Z,68.66
2022-11-16T17:16:49.730Z,68.92
2022-11-16T17:19:17.883Z,68.64
2022-11-16T17:21:46.789Z,68.64
2022-11-16T17:24:14.899Z,68.61
2022-11-16T17:26:42.799Z,69.11
2022-11-16T17:29:10.736Z,68.39
2022-11-16T17:31:43.570Z,68.87
2022-11-16T17:34:13.799Z,69.19
2022-11-16T17:36:42.826Z,69.20
2022-11-16T17:39:10.733Z,68.74
2022-11-16T17:41:38.751Z,69.22
2022-11-16T17:44:06.585Z,69.21
2022-11-16T17:46:36.515Z,68.73
2022-11-16T17:49:04.617Z,68.98
2022-11-16T17:51:32.419Z,69.26
2022-11-16T17:54:00.317Z,69.34
2022-11-16T17:56:28.679Z,69.36
2022-11-16T17:58:58.480Z,69.14
2022-11-16T18:01:26.816Z,69.24
2022-11-16T18:03:54.760Z,68.99
2022-11-16T18:06:22.743Z,69.19
2022-11-16T18:08:50.484Z,69.63
2022-11-16T18:11:20.275Z,69.81
2022-11-16T18:13:48.548Z,69.76
2022-11-16T18:16:16.408Z,69.93
2022-11-16T18:18:44.852Z,70.23
2022-11-16T18:21:18.763Z,69.99
2022-11-16T18:23:48.156Z,70.61
2022-11-16T18:26:16.032Z,70.42
2022-11-16T18:28:43.872Z,70.81
2022-11-16T18:31:11.923Z,70.40
2022-11-16T18:33:39.698Z,70.64
2022-11-16T18:36:08.720Z,70.73
2022-11-16T18:38:37.085Z,70.91
2022-11-16T18:41:04.830Z,71.51
2022-11-16T18:43:34.244Z,71.39
2022-11-16T18:46:02.542Z,71.50
2022-11-16T18:48:31.240Z,71.21
2022-11-16T18:51:01.517Z,71.82
2022-11-16T18:53:30.034Z,71.99
2022-11-16T18:55:58.372Z,72.04
2022-11-16T19:01:14.765Z,71.83
2022-11-16T19:03:42.670Z,71.67
2022-11-16T19:06:10.548Z,71.87
2022-11-16T19:08:38.600Z,72.16
2022-11-16T19:11:06.722Z,72.45
2022-11-16T19:13:35.763Z,72.46
2022-11-16T19:16:04.056Z,72.36
2022-11-16T19:18:31.906Z,72.30
2022-11-16T19:21:00.209Z,73.01
2022-11-16T19:23:28.090Z,72.59
2022-11-16T19:25:58.200Z,72.99
2022-11-16T19:28:25.980Z,72.69
2022-11-16T19:30:54.015Z,72.79
2022-11-16T19:33:21.851Z,73.00
2022-11-16T19:35:49.633Z,72.71
2022-11-16T19:38:18.001Z,73.20
2022-11-16T19:40:45.796Z,72.97
2022-11-16T19:43:14.194Z,72.68
2022-11-16T19:45:42.084Z,72.81
2022-11-16T19:48:09.943Z,73.21
2022-11-16T19:50:40.231Z,72.83
2022-11-16T19:53:08.199Z,72.97
2022-11-16T19:55:36.147Z,72.32
2022-11-16T19:58:03.947Z,72.67
2022-11-16T20:00:31.997Z,72.76
2022-11-16T20:03:00.480Z,72.84
2022-11-16T20:05:30.192Z,73.12
2022-11-16T20:07:58.181Z,72.92
2022-11-16T20:10:26.083Z,72.73
2022-11-16T20:12:53.840Z,72.60
2022-11-16T20:15:24.527Z,72.91
2022-11-16T20:17:52.423Z,73.24
2022-11-16T20:20:20.301Z,73.13
2022-11-16T20:22:48.348Z,72.88
2022-11-16T20:25:16.964Z,73.28
2022-11-16T20:27:45.587Z,73.35
2022-11-16T20:30:13.437Z,73.10
2022-11-16T20:32:41.335Z,73.63
2022-11-16T20:35:09.219Z,73.28
2022-11-16T20:37:37.251Z,73.75
2022-11-16T20:40:05.575Z,73.38
2022-11-16T20:42:33.416Z,73.36
2022-11-16T20:45:01.293Z,73.14
2022-11-16T20:47:29.200Z,73.41
2022-11-16T20:49:58.996Z,73.78
2022-11-16T20:52:27.281Z,73.73
2022-11-16T20:54:55.201Z,73.71
2022-11-16T20:57:23.292Z,73.34
2022-11-16T20:59:51.227Z,73.41
2022-11-16T21:02:18.967Z,73.55
2022-11-16T21:04:47.318Z,73.35
2022-11-16T21:07:15.694Z,73.05
2022-11-16T21:09:57.396Z,73.17
2022-11-16T21:12:42.983Z,73.16
2022-11-16T21:15:11.950Z,72.93
2022-11-16T21:17:39.771Z,73.15
2022-11-16T21:20:31.420Z,73.19
2022-11-16T21:22:55.564Z,72.92
2022-11-16T21:25:24.681Z,72.64
2022-11-16T21:27:52.573Z,72.48
2022-11-16T21:30:20.736Z,72.54
2022-11-16T21:32:48.559Z,72.31
2022-11-16T21:35:16.311Z,72.55
2022-11-16T21:37:44.598Z,72.20
2022-11-16T21:40:13.126Z,72.18
2022-11-16T21:42:41.055Z,72.42
2022-11-16T21:45:08.834Z,71.88
2022-11-16T21:47:36.766Z,72.10
2022-11-16T21:52:52.855Z,71.68
2022-11-16T21:55:20.718Z,72.25
2022-11-16T21:57:48.341Z,71.91
2022-11-16T22:00:17.266Z,72.12
2022-11-16T22:02:45.072Z,71.51
2022-11-16T22:05:36.794Z,71.81
2022-11-16T22:08:04.646Z,71.90
2022-11-16T22:10:36.897Z,72.18
2022-11-16T22:13:04.781Z,72.13
2022-11-16T22:15:32.542Z,71.46
2022-11-16T22:18:00.396Z,71.62
2022-11-16T22:20:28.580Z,72.18
2022-11-16T22:22:57.445Z,72.23
2022-11-16T22:25:25.406Z,72.43
2022-11-16T22:28:19.259Z,72.34
2022-11-16T22:30:41.748Z,72.57
2022-11-16T22:33:09.946Z,72.37
2022-11-16T22:35:37.728Z,72.91
2022-11-16T22:38:05.566Z,72.47
2022-11-16T22:40:33.404Z,72.31
2022-11-16T22:43:01.187Z,72.53
2022-11-16T22:45:29.507Z,72.57
2022-11-16T22:47:59.951Z,72.38
2022-11-16T22:50:27.809Z,72.28
2022-11-16T22:52:55.921Z,72.46
2022-11-16T22:55:23.695Z,72.21
2022-11-16T22:58:00.973Z,72.79
2022-11-16T23:00:28.669Z,72.51
2022-11-16T23:02:56.439Z,72.74
2022-11-16T23:05:24.361Z,72.64
2022-11-16T23:07:52.263Z,72.46
2022-11-16T23:10:21.641Z,72.87
2022-11-16T23:13:07.343Z,73.00
2022-11-16T23:18:32.519Z,72.52
2022-11-16T23:21:17.759Z,72.56
2022-11-16T23:24:03.078Z,72.64
2022-11-16T23:26:48.060Z,72.19
2022-11-16T23:29:17.282Z,72.45
2022-11-16T23:31:45.841Z,71.64
2022-11-16T23:34:13.982Z,72.59
2022-11-16T23:36:41.695Z,72.34
2022-11-16T23:39:09.423Z,72.46
2022-11-16T23:41:54.620Z,72.42
2022-11-16T23:44:22.389Z,72.13
2022-11-16T23:46:50.095Z,72.56
2022-11-16T23:49:17.863Z,72.31
2022-11-16T23:51:45.782Z,71.98
2022-11-16T23:54:13.942Z,72.61
2022-11-16T23:56:43.405Z,72.65
2022-11-16T23:59:11.028Z,72.82
